Phoenix, AZ (85038)

12:47 PM MST on November 27, 2014 (GMT -0700)
AZCC | Change Station
CLOSE
Current Station
Personal Weather Station
Location: Phoenix, AZ
Elevation: 1270 ft
Nearby Weather Stations

Elev 1270 ft 33.48 °N, 111.95 °W | Updated 1 second ago

Partly Cloudy
Partly Cloudy
73.1 °F
Feels Like 76 °F
N
3.6
Wind Variable Wind from ESE
Gusts 3.6 mph

Today
High -- | Low -- °F
--% Chance of Precip.
Yesterday
High -- | Low -- °F
Precip. -- in
7:10 AM 5:20 PM
Waxing Crescent, 32% visible
Pressure 30.16 in
Visibility 10.0 miles
Clouds Few 25000 ft
Heat Index 76 °F
Dew Point 34 °F
Humidity 24%
Rainfall 0.00 in
Snow Depth Not available.
UV 4 out of 12
Pollen 3.40 out of 12
Air Quality Not available.
Flu Activity Not available.
METAR KPHX 271851Z 00000KT 10SM FEW250 24/M03 A3016

More Conditions Fewer Conditions

Pressure 30.16 in
Visibility 10.0 miles
Clouds Few 25000 ft
Heat Index 76 °F
Dew Point 34 °F
Humidity 24%
Rainfall 0.00 in
Snow Depth Not available.
UV 4 out of 12
Pollen 3.40 out of 12
Air Quality Not available.
Flu Activity Not available.
METAR KPHX 271851Z 00000KT 10SM FEW250 24/M03 A3016

More Conditions Fewer Conditions

10-Day Weather Forecast

Almanac

Astronomy

Nov. 27, 2014 Rise Set
Actual Time
Civil Twilight
Nautical Twilight
Astronomical Twilight
Moon
Length of Visible Light
Length of Day
Tomorrow will be .
, % of the Moon is Illuminated

Today's Extremes

State Highs State Lows

Community

WunderPhotos

Upload Photos

1,774,094 photos uploaded!

WunderBlogs® & News

Nearby

Air Quality

  Air Quality AQ Index Pollutant
Not available.

Snow Depth

Station Depth Elevation

Earthquake Activity

City Distance Mag. Time & Date
Minimum magnitude displayed is 2.5.

Coastal Water Temperatures

Place Temperature

Nearby Weather Stations